Flight Track Log - Related Links

Times and Time Zones

All times are in EDT time to prevent confusion due to time zone crossing. See the WAV261 flight status page for this flight to view local times or setup timezone preferences in your user account.

Time Position Orientation Groundspeed Altitude Reporting Facility
EDT Latitude Longitude Course Direction KTS MPH feet Rate Location/Type
Fri 11:01:55 PM 66.4667 -145.4167 212° Southwest 160 184 3,800  Level Anchorage Center
Fri 11:02:55 PM 66.4333 -145.4667 211° Southwest 160 184 4,600 900 Climbing Anchorage Center
Fri 11:03:55 PM 66.4000 -145.5333 219° Southwest 150 173 5,600 1,050 Climbing Anchorage Center
Fri 11:04:55 PM 66.3667 -145.5833 211° Southwest 150 173 6,700 1,000 Climbing Anchorage Center
Fri 11:05:55 PM 66.3167 -145.6167 195° South 160 184 7,600 650 Climbing Anchorage Center
Fri 11:06:55 PM 66.2833 -145.6667 211° Southwest 160 184 8,000 198 Climbing Anchorage Center
Fri 11:07:00 PM 66.2383 -145.7469 212° Southwest  Level FlightAware Approximate
Fri 11:07:56 PM 66.2500 -145.7333 219° Southwest 160 184 8,000  Level Anchorage Center
Fri 11:08:56 PM 66.2167 -145.7833 211° Southwest 160 184 8,000  Level Anchorage Center
Fri 11:09:56 PM 66.1833 -145.8333 211° Southwest 150 173 8,000  Level Anchorage Center
Fri 11:10:56 PM 66.1333 -145.9000 208° Southwest 160 184 8,000  Level Anchorage Center
Fri 11:11:56 PM 66.1000 -145.9667 219° Southwest 160 184 8,000  Level Anchorage Center
Fri 11:12:56 PM 66.0667 -146.0167 211° Southwest 160 184 8,000  Level Anchorage Center
Fri 11:13:56 PM 66.0333 -146.0833 219° Southwest 160 184 8,000  Level Anchorage Center
Fri 11:14:56 PM 65.9833 -146.1333 202° Southwest 160 184 8,000  Level Anchorage Center
Fri 11:15:56 PM 65.9500 -146.2000 219° Southwest 160 184 8,000  Level Anchorage Center
Fri 11:16:56 PM 65.9167 -146.2667 219° Southwest 150 173 8,000  Level Anchorage Center
Fri 11:17:57 PM 65.8833 -146.3167 212° Southwest 150 173 8,000  Level Anchorage Center
Fri 11:18:57 PM 65.8500 -146.3833 219° Southwest 160 184 8,000  Level Anchorage Center
Fri 11:20:57 PM 65.7667 -146.4833 206° Southwest 150 173 8,000  Level Anchorage Center
Fri 11:21:57 PM 65.7333 -146.5500 219° Southwest 160 184 8,000  Level Anchorage Center
Fri 11:22:57 PM 65.7000 -146.6000 212° Southwest 150 173 8,000  Level Anchorage Center
Fri 11:23:57 PM 65.6500 -146.6500 202° Southwest 150 173 8,000  Level Anchorage Center
Fri 11:24:57 PM 65.6167 -146.7000 212° Southwest 190 219 8,000  Level Anchorage Center
Fri 11:25:57 PM 65.5833 -146.7500 212° Southwest 150 173 8,000  Level Anchorage Center
Fri 11:26:57 PM 65.5500 -146.8000 212° Southwest 160 184 8,000  Level Anchorage Center
Fri 11:27:57 PM 65.5000 -146.8500 203° Southwest 160 184 8,000  Level Anchorage Center
Fri 11:28:58 PM 65.4667 -146.8833 203° Southwest 140 161 8,000  Level Anchorage Center
Fri 11:30:00 PM 65.4295 -146.9423 213° Southwest  Level FlightAware Approximate
Fri 11:37:00 PM 65.1804 -147.3358 209° Southwest  Level FlightAware Approximate
Fri 11:38:00 PM 65.1426 -147.3849 209° Southwest  Level FlightAware Approximate
Fri 11:39:00 PM 65.1048 -147.4340 209° Southwest  Level FlightAware Approximate
Fri 11:40:00 PM 65.0670 -147.4829 209° Southwest  Level FlightAware Approximate
Fri 11:41:00 PM 65.0299 -147.5347 211° Southwest  Level FlightAware Approximate
Fri 11:42:00 PM 64.9928 -147.5863 210° Southwest  Level FlightAware Approximate
Fri 11:43:00 PM 64.9556 -147.6378 210° Southwest  Level FlightAware Approximate
Fri 11:44:00 PM 64.9184 -147.6892 210° Southwest  Level FlightAware Approximate
Fri 11:45:00 PM 64.8812 -147.7404 210° Southwest  Level FlightAware Approximate
Fri 11:46:00 PM 64.8440 -147.7914 210° Southwest  Level FlightAware Approximate
Fri 11:47:00 PM 64.8065 -147.8413 210° Southwest  Level FlightAware Approximate
Fri 11:48:00 PM 64.8000 -147.8500 210° Southwest  Level FlightAware Approximate
Fri 11:49:00 PM 64.8151 -147.8564 210° Southwest  Level Estimated
Fri 11:50:00 PM 64.8151 -147.8564 210° Southwest  Level Estimated
Fri 11:51:00 PM 64.8151 -147.8564 210° Southwest  Level Estimated
Fri 11:52:00 PM 64.8151 -147.8564 210° Southwest  Level Estimated
Fri 11:53:00 PM 64.8151 -147.8564 210° Southwest  Level Estimated
Fri 11:54:00 PM 64.8151 -147.8564 210° Southwest  Level Estimated
Fri 11:55:00 PM 64.8151 -147.8564 210° Southwest  Level Estimated
Fri 11:56:00 PM 64.8151 -147.8564 210° Southwest  Level Estimated
Fri 11:57:00 PM 64.8151 -147.8564 210° Southwest  Level Estimated
Fri 11:58:00 PM 64.8151 -147.8564 210° Southwest  Level Estimated
Fri 11:59:00 PM 64.8151 -147.8564 210° Southwest  Level Estimated
Sat 12:00:00 AM 64.8151 -147.8564 210° Southwest  Level Estimated
Sat 12:01:00 AM 64.8151 -147.8564 210° Southwest  Level Estimated

Login

Don't have an account? Register now (free) for customized features, flight alerts, and more!